Time;durP1;ratioP1;P1;durP2;ratioP2;P2;SDS_P1;SDS_P2;PMS_P1;PMS_P2;Temp;Humidity;BMP_temperature;BMP_pressure;BME280_temperature;BME280_humidity;BME280_pressure;Samples;Min_cycle;Max_cycle;Signal;HPM_P1;HPM_P2
2021/03/08 04:12:01;;;;;;;1.40;0.98;;;-7.00;76.40;;;;;;5053999;28;20057;-67
2021/03/08 04:14:30;;;;;;;0.90;0.90;;;-7.00;76.50;;;;;;5054807;28;20498;-67
2021/03/08 04:16:58;;;;;;;1.15;1.05;;;-7.00;76.40;;;;;;5054819;28;20033;-67
2021/03/08 04:19:35;;;;;;;1.75;1.10;;;-7.00;76.50;;;;;;5054746;28;20136;-67
2021/03/08 04:22:03;;;;;;;2.10;1.20;;;-7.00;76.60;;;;;;5055068;28;20025;-67
2021/03/08 04:24:31;;;;;;;2.15;1.25;;;-7.10;76.80;;;;;;5054707;28;20034;-67
2021/03/08 04:27:06;;;;;;;1.50;1.00;;;-7.20;76.70;;;;;;5054939;28;20025;-66
2021/03/08 04:29:42;;;;;;;2.67;1.17;;;-7.20;77.20;;;;;;5055080;28;20036;-67
2021/03/08 04:32:09;;;;;;;2.15;1.20;;;-7.30;77.30;;;;;;5054492;28;20492;-67
2021/03/08 04:34:39;;;;;;;1.20;1.10;;;-7.30;77.50;;;;;;5054751;28;20440;-67
2021/03/08 04:37:05;;;;;;;1.15;1.10;;;-7.40;77.60;;;;;;5054635;28;20400;-67
2021/03/08 04:39:38;;;;;;;0.85;0.85;;;-7.40;78.10;;;;;;5054550;28;20029;-67
2021/03/08 04:42:06;;;;;;;5.20;1.20;;;-7.50;78.20;;;;;;5054336;28;20035;-67
2021/03/08 04:44:38;;;;;;;2.60;1.23;;;-7.50;78.30;;;;;;5054387;28;20032;-67
2021/03/08 04:47:04;;;;;;;1.13;1.10;;;-7.60;78.30;;;;;;5054362;28;20428;-67
2021/03/08 04:49:33;;;;;;;0.90;0.90;;;-7.60;78.50;;;;;;5054142;28;20575;-67
2021/03/08 04:51:59;;;;;;;2.45;1.27;;;-7.70;78.80;;;;;;5053997;28;20424;-67
2021/03/08 04:54:26;;;;;;;2.20;1.10;;;-7.70;80.00;;;;;;5053987;28;20068;-67
2021/03/08 04:56:54;;;;;;;2.08;1.05;;;-7.70;79.30;;;;;;5054068;28;20036;-67
2021/03/08 04:59:20;;;;;;;0.90;0.90;;;-7.70;79.60;;;;;;5053899;28;20480;-67
2021/03/08 05:01:48;;;;;;;1.58;1.17;;;-7.70;79.60;;;;;;5054289;28;20094;-67
2021/03/08 05:04:16;;;;;;;1.20;1.10;;;-7.70;79.70;;;;;;5053884;28;20104;-67
2021/03/08 05:06:43;;;;;;;2.65;1.25;;;-7.70;79.70;;;;;;5053901;28;20559;-67
2021/03/08 05:09:12;;;;;;;7.45;1.10;;;-7.70;80.00;;;;;;5054027;28;20159;-67
2021/03/08 05:11:39;;;;;;;1.38;1.20;;;-7.80;80.20;;;;;;5053741;28;20420;-67
2021/03/08 05:14:08;;;;;;;3.58;1.27;;;-7.80;80.50;;;;;;5053888;28;20063;-67
2021/03/08 05:16:38;;;;;;;1.17;1.10;;;-7.80;80.30;;;;;;5053749;28;20040;-67
2021/03/08 05:19:05;;;;;;;1.40;1.30;;;-7.80;80.50;;;;;;5053813;28;20033;-68
2021/03/08 05:21:34;;;;;;;2.05;1.15;;;-7.70;80.70;;;;;;5053677;28;20100;-68
2021/03/08 05:24:00;;;;;;;3.22;1.17;;;-7.70;80.50;;;;;;5053644;28;20029;-70
2021/03/08 05:26:27;;;;;;;1.00;1.00;;;-7.60;80.10;;;;;;5053311;28;20497;-68
2021/03/08 05:28:54;;;;;;;2.08;1.50;;;-7.60;79.90;;;;;;5053578;28;20025;-67
2021/03/08 05:31:22;;;;;;;1.50;1.30;;;-7.60;79.80;;;;;;5053494;28;20443;-66
2021/03/08 05:33:51;;;;;;;3.75;1.30;;;-7.60;80.00;;;;;;5053424;28;20039;-66
2021/03/08 05:36:18;;;;;;;2.60;1.50;;;-7.60;80.00;;;;;;5053249;28;20376;-66
2021/03/08 05:38:46;;;;;;;1.52;1.17;;;-7.60;80.00;;;;;;5053431;28;20033;-66
2021/03/08 05:41:15;;;;;;;3.05;1.30;;;-7.30;95.30;;;;;;5053215;28;20017;-70
2021/03/08 05:43:45;;;;;;;1.83;1.35;;;-6.80;98.30;;;;;;5053245;28;20021;-67
2021/03/08 05:46:34;;;;;;;;;;;-6.70;85.40;;;;;;5053677;28;20028;-66
2021/03/08 05:49:21;;;;;;;1.00;1.00;;;-6.90;81.30;;;;;;5052605;28;19905;-67
2021/03/08 05:52:08;;;;;;;1.20;1.10;;;-7.00;80.00;;;;;;5051036;28;20041;-66
2021/03/08 05:55:04;;;;;;;1.77;1.23;;;-7.30;79.90;;;;;;5050544;28;20028;-67
2021/03/08 05:58:01;;;;;;;3.40;1.17;;;-7.50;80.80;;;;;;5048981;28;20106;-67
2021/03/08 06:00:35;;;;;;;5.05;2.63;;;-7.60;81.60;;;;;;5050698;28;20024;-67
2021/03/08 06:03:13;;;;;;;1.70;1.60;;;-7.60;82.30;;;;;;5049859;28;20480;-68
2021/03/08 06:06:00;;;;;;;1.98;1.30;;;-7.40;81.70;;;;;;5048524;28;20542;-68
2021/03/08 06:08:53;;;;;;;2.95;1.20;;;-7.20;81.00;;;;;;5051564;28;20521;-66
2021/03/08 06:11:22;;;;;;;7.72;1.40;;;-7.10;80.10;;;;;;5050781;28;20436;-67
2021/03/08 06:13:55;;;;;;;3.22;1.10;;;-7.00;79.30;;;;;;5051579;28;20496;-67
2021/03/08 06:16:33;;;;;;;1.55;1.20;;;-7.00;78.80;;;;;;5050859;28;20017;-67
2021/03/08 06:19:00;;;;;;;1.30;1.20;;;-7.00;78.40;;;;;;5052512;28;20028;-66
2021/03/08 06:21:26;;;;;;;2.40;1.30;;;-7.10;78.40;;;;;;5052518;28;20404;-68
2021/03/08 06:23:54;;;;;;;4.95;2.20;;;-7.20;79.00;;;;;;5050697;28;20033;-67
2021/03/08 06:26:20;;;;;;;6.40;1.77;;;-6.80;89.80;;;;;;5052271;28;20064;-69
2021/03/08 06:28:46;;;;;;;10.02;2.88;;;-6.80;81.50;;;;;;5052646;28;20083;-69
2021/03/08 06:31:12;;;;;;;6.68;1.98;;;-6.80;80.20;;;;;;5052140;28;20507;-71
2021/03/08 06:33:38;;;;;;;10.30;2.25;;;-6.80;79.60;;;;;;5052239;28;20108;-71
2021/03/08 06:36:05;;;;;;;4.65;1.30;;;-6.70;79.10;;;;;;5050948;28;20023;-72
2021/03/08 06:38:32;;;;;;;11.35;1.67;;;-6.80;78.60;;;;;;5052005;28;20036;-72
2021/03/08 06:41:01;;;;;;;1.45;1.20;;;-6.80;78.50;;;;;;5052156;28;20090;-72
2021/03/08 06:43:28;;;;;;;2.78;1.35;;;-6.80;78.80;;;;;;5051996;28;20025;-72
2021/03/08 06:45:55;;;;;;;2.13;1.13;;;-6.80;78.70;;;;;;5052027;28;20055;-72
2021/03/08 06:48:22;;;;;;;6.20;1.50;;;-6.90;78.70;;;;;;5052195;28;20075;-72
2021/03/08 06:51:13;;;;;;;5.05;1.25;;;-6.80;78.90;;;;;;5051980;28;20036;-70
2021/03/08 06:53:43;;;;;;;1.33;1.15;;;-6.70;79.10;;;;;;5051917;28;20033;-74
2021/03/08 06:56:12;;;;;;;8.43;1.50;;;-6.50;78.90;;;;;;5052004;28;20025;-74
2021/03/08 06:58:38;;;;;;;5.28;1.20;;;-6.30;78.30;;;;;;5052031;28;20472;-77
2021/03/08 07:01:10;;;;;;;5.20;1.50;;;-6.10;77.60;;;;;;5051721;28;20032;-69
2021/03/08 07:03:37;;;;;;;2.42;1.30;;;-5.50;99.90;;;;;;5051918;28;20029;-66
2021/03/08 07:06:15;;;;;;;6.15;1.60;;;-4.80;97.80;;;;;;5049301;28;20124;-67
2021/03/08 07:08:41;;;;;;;1.60;1.08;;;-4.80;79.90;;;;;;5049114;28;20579;-67
2021/03/08 07:11:19;;;;;;;0.95;0.95;;;-5.10;76.30;;;;;;5047451;28;20469;-65
2021/03/08 07:13:46;;;;;;;5.25;1.17;;;-4.80;99.90;;;;;;5050347;28;20049;-68
2021/03/08 07:16:12;;;;;;;2.33;1.10;;;-3.20;99.90;;;;;;5052600;28;20071;-68
2021/03/08 07:18:38;;;;;;;7.25;1.38;;;-3.50;80.90;;;;;;5055260;28;20083;-67
2021/03/08 07:21:19;;;;;;;5.68;1.40;;;-3.90;75.50;;;;;;5052279;28;20157;-68
2021/03/08 07:23:48;;;;;;;4.65;1.00;;;-4.20;74.20;;;;;;5054426;28;20024;-69
2021/03/08 07:26:18;;;;;;;4.13;1.13;;;-4.40;74.00;;;;;;5055289;28;20381;-72
2021/03/08 07:28:44;;;;;;;;;;;-4.50;73.70;;;;;;5055484;28;20021;-71
2021/03/08 07:31:34;;;;;;;2.10;1.27;;;-4.60;73.50;;;;;;5055360;28;19974;-71
2021/03/08 07:34:00;;;;;;;3.53;1.23;;;-4.80;73.70;;;;;;5055451;28;20032;-76
2021/03/08 07:36:26;;;;;;;8.05;1.40;;;-4.80;74.00;;;;;;5055053;28;20028;-76
2021/03/08 07:38:52;;;;;;;2.25;1.30;;;-4.80;74.10;;;;;;5054951;28;20029;-76
2021/03/08 07:41:20;;;;;;;1.67;1.10;;;-4.70;74.10;;;;;;5054997;28;20063;-76
2021/03/08 07:43:51;;;;;;;4.47;1.08;;;-4.70;75.10;;;;;;5053851;28;20024;-81
2021/03/08 07:46:30;;;;;;;9.38;1.92;;;-4.60;74.10;;;;;;5054690;28;20025;-73
2021/03/08 07:48:58;;;;;;;4.18;1.40;;;-4.50;73.90;;;;;;5052056;28;20079;-71
2021/03/08 07:51:24;;;;;;;17.88;1.98;;;-4.40;75.20;;;;;;5053084;28;20025;-75
2021/03/08 07:54:00;;;;;;;8.27;1.45;;;-4.40;74.60;;;;;;5054532;28;20037;-74
2021/03/08 07:56:26;;;;;;;8.70;1.15;;;-4.30;74.60;;;;;;5054196;28;20040;-73
2021/03/08 07:58:53;;;;;;;1.40;1.27;;;-4.30;73.80;;;;;;5054239;28;20111;-74
2021/03/08 08:01:20;;;;;;;5.90;1.42;;;-4.30;73.30;;;;;;5054413;28;20025;-73
2021/03/08 08:03:46;;;;;;;5.22;1.25;;;-4.20;73.20;;;;;;5053526;28;20040;-73
2021/03/08 08:06:12;;;;;;;4.82;1.83;;;-4.10;73.90;;;;;;5054499;28;20392;-73
2021/03/08 08:08:45;;;;;;;6.43;1.98;;;-4.00;73.60;;;;;;5054112;28;20069;-74
2021/03/08 08:11:12;;;;;;;8.43;1.60;;;-3.90;73.50;;;;;;5053971;28;20025;-75
2021/03/08 08:14:04;;;;;;;10.10;1.88;;;-3.90;73.30;;;;;;5051866;28;20083;-74
2021/03/08 08:16:33;;;;;;;8.00;1.45;;;-3.80;73.20;;;;;;5053239;28;20029;-73
2021/03/08 08:19:20;;;;;;;13.23;1.88;;;-3.80;72.90;;;;;;5051452;28;20515;-73
2021/03/08 08:21:46;;;;;;;3.22;1.50;;;-3.70;73.20;;;;;;5051176;28;20032;-74
2021/03/08 08:24:26;;;;;;;4.85;1.38;;;-3.70;72.80;;;;;;5052788;28;20025;-73
2021/03/08 08:26:54;;;;;;;9.70;1.73;;;-3.70;72.40;;;;;;5035021;28;20105;-73
2021/03/08 08:29:24;;;;;;;8.77;1.33;;;-3.80;72.20;;;;;;5054004;28;20040;-72
2021/03/08 08:32:00;;;;;;;7.90;2.20;;;-3.90;72.20;;;;;;5054017;28;20028;-73
2021/03/08 08:34:46;;;;;;;7.80;1.40;;;-3.90;72.40;;;;;;5052738;28;20037;-72
2021/03/08 08:37:16;;;;;;;7.57;1.83;;;-3.80;72.70;;;;;;5052267;28;20108;-72
2021/03/08 08:40:03;;;;;;;3.30;1.45;;;-3.70;72.60;;;;;;5051093;28;20192;-73
2021/03/08 08:42:30;;;;;;;19.05;1.65;;;-3.70;72.50;;;;;;5053400;28;20025;-72
2021/03/08 08:44:58;;;;;;;3.90;1.20;;;-3.70;72.30;;;;;;5053553;28;20043;-70
2021/03/08 08:47:36;;;;;;;6.80;1.25;;;-3.70;72.30;;;;;;5038824;28;20027;-75
2021/03/08 08:50:09;;;;;;;3.53;1.27;;;-3.70;72.10;;;;;;5053691;28;20032;-84
2021/03/08 08:52:50;;;;;;;6.70;1.10;;;-3.60;72.80;;;;;;5052756;28;20572;-70
2021/03/08 08:55:39;;;;;;;6.80;1.13;;;-1.30;99.90;;;;;;5053704;28;20032;-71
2021/03/08 08:58:25;;;;;;;4.57;1.13;;;-0.50;93.20;;;;;;5053561;28;20029;-72
2021/03/08 09:01:14;;;;;;;27.75;1.77;;;-1.20;72.30;;;;;;5053082;28;20021;-74
2021/03/08 09:04:04;;;;;;;8.32;1.20;;;-1.70;74.20;;;;;;5052155;28;20499;-72
2021/03/08 09:06:59;;;;;;;16.40;1.80;;;-1.40;83.20;;;;;;5053376;28;20060;-72
2021/03/08 09:09:31;;;;;;;25.88;2.17;;;-1.70;71.40;;;;;;5053275;28;20082;-72
2021/03/08 09:11:58;;;;;;;6.95;1.80;;;-2.00;71.70;;;;;;5053425;28;20136;-72
2021/03/08 09:14:38;;;;;;;13.13;1.65;;;-2.20;71.60;;;;;;5053659;28;20617;-72
2021/03/08 09:17:15;;;;;;;4.37;1.37;;;-2.30;71.80;;;;;;5053679;28;20056;-72
2021/03/08 09:19:43;;;;;;;5.10;1.15;;;-2.40;70.60;;;;;;5053437;28;20264;-72
2021/03/08 09:22:26;;;;;;;2.22;1.13;;;-2.40;71.00;;;;;;5053703;28;20100;-72
2021/03/08 09:24:57;;;;;;;3.08;1.30;;;-2.50;70.50;;;;;;5053724;28;20087;-72
2021/03/08 09:27:27;;;;;;;11.80;1.23;;;-2.50;70.30;;;;;;5053514;28;20020;-72
2021/03/08 09:30:00;;;;;;;6.13;1.10;;;-2.50;71.20;;;;;;5053608;28;20079;-72
2021/03/08 09:32:26;;;;;;;6.15;1.20;;;-2.50;70.30;;;;;;5053394;28;20033;-73
2021/03/08 09:34:51;;;;;;;8.65;1.85;;;-2.50;69.70;;;;;;5053291;28;20473;-72
2021/03/08 09:37:18;;;;;;;8.85;1.80;;;-2.40;69.40;;;;;;5053096;28;20029;-72
2021/03/08 09:39:51;;;;;;;8.38;1.70;;;-2.50;69.40;;;;;;5052284;28;20599;-72
2021/03/08 09:42:17;;;;;;;6.10;1.15;;;-2.50;69.10;;;;;;5053203;28;20029;-72
2021/03/08 09:44:44;;;;;;;3.78;1.33;;;-2.40;69.50;;;;;;5051927;28;20025;-72
2021/03/08 09:47:11;;;;;;;12.27;1.95;;;-2.40;68.60;;;;;;5053341;28;20235;-72
2021/03/08 09:49:53;;;;;;;15.65;3.15;;;-2.40;69.20;;;;;;5052848;28;20036;-72
2021/03/08 09:52:38;;;;;;;6.03;2.20;;;-2.30;70.10;;;;;;5053092;28;20407;-73
2021/03/08 09:55:05;;;;;;;8.45;2.15;;;-2.20;70.40;;;;;;5051771;28;20111;-72
2021/03/08 09:57:42;;;;;;;4.28;1.63;;;-2.20;69.20;;;;;;5052952;28;20447;-72
2021/03/08 10:00:22;;;;;;;5.00;1.75;;;-2.20;69.30;;;;;;5053379;28;20070;-72
2021/03/08 10:03:00;;;;;;;3.80;1.77;;;-2.10;68.20;;;;;;5051760;28;20108;-72
2021/03/08 10:05:39;;;;;;;6.78;1.80;;;-2.10;68.80;;;;;;5052948;28;20045;-73
2021/03/08 10:08:06;;;;;;;8.55;1.60;;;-2.10;68.80;;;;;;5059929;28;20029;-76
2021/03/08 10:10:46;;;;;;;6.53;1.30;;;-1.50;99.90;;;;;;5071389;28;20025;-71
2021/03/08 10:13:12;;;;;;;15.93;1.55;;;-0.90;76.20;;;;;;5072458;28;20048;-73
2021/03/08 10:15:41;;;;;;;4.97;1.30;;;-1.00;69.40;;;;;;5072449;28;20025;-73
2021/03/08 10:18:07;;;;;;;7.13;1.60;;;-1.10;67.80;;;;;;5072400;28;20032;-76
2021/03/08 10:20:41;;;;;;;7.65;1.35;;;-1.30;68.10;;;;;;5072392;28;20029;-78
2021/03/08 10:23:16;;;;;;;3.58;1.63;;;-1.30;68.70;;;;;;5072522;28;20480;-77
2021/03/08 10:25:41;;;;;;;3.38;1.50;;;-1.30;67.90;;;;;;5072592;28;20044;-75
2021/03/08 10:28:08;;;;;;;6.32;1.40;;;-1.00;74.80;;;;;;5072176;28;20373;-67
2021/03/08 10:30:34;;;;;;;7.20;1.30;;;-1.00;69.20;;;;;;5067778;28;20083;-69
2021/03/08 10:33:05;;;;;;;9.35;1.40;;;-1.00;68.30;;;;;;5051987;28;20044;-69
2021/03/08 10:35:34;;;;;;;7.97;1.33;;;-1.10;67.30;;;;;;5055057;28;20491;-69
2021/03/08 10:38:02;;;;;;;5.47;1.70;;;-1.10;66.90;;;;;;5051360;28;20482;-69
2021/03/08 10:40:28;;;;;;;10.45;1.38;;;-1.10;65.30;;;;;;5051486;28;20025;-69
2021/03/08 10:42:59;;;;;;;7.50;1.30;;;-1.10;65.70;;;;;;5051481;28;20086;-69
2021/03/08 10:45:25;;;;;;;;;;;-1.10;67.20;;;;;;5052321;28;20021;-74
2021/03/08 10:48:12;;;;;;;3.50;1.13;;;-1.00;67.00;;;;;;5049150;28;19958;-77
2021/03/08 10:50:50;;;;;;;13.85;1.67;;;-1.00;66.30;;;;;;5049101;28;20032;-76
2021/03/08 10:53:16;;;;;;;7.75;1.10;;;-1.00;65.60;;;;;;5051039;28;20204;-77
2021/03/08 10:55:43;;;;;;;3.53;1.15;;;-1.00;66.60;;;;;;5051518;28;20013;-76
2021/03/08 10:58:09;;;;;;;4.47;1.45;;;-1.10;67.00;;;;;;5051423;28;20045;-73
2021/03/08 11:00:35;;;;;;;3.92;1.10;;;-1.10;66.70;;;;;;5051179;28;20020;-75
2021/03/08 11:03:01;;;;;;;21.73;1.63;;;-1.20;66.20;;;;;;5051462;28;20021;-74
2021/03/08 11:05:28;;;;;;;28.73;1.85;;;-1.10;67.40;;;;;;5051528;28;20480;-75
2021/03/08 11:07:55;;;;;;;13.90;1.48;;;-1.10;66.70;;;;;;5051957;28;20170;-75
2021/03/08 11:10:35;;;;;;;9.43;2.78;;;-1.10;65.40;;;;;;5051676;28;20550;-75
2021/03/08 11:13:03;;;;;;;10.95;1.30;;;-1.20;65.50;;;;;;5051219;28;20053;-76
2021/03/08 11:15:29;;;;;;;10.50;1.73;;;-1.20;65.10;;;;;;5051716;28;20049;-75
2021/03/08 11:17:55;;;;;;;12.20;1.50;;;-1.20;65.40;;;;;;5048443;28;20114;-74
2021/03/08 11:20:25;;;;;;;16.13;1.90;;;-1.10;65.20;;;;;;5046135;28;20032;-77
2021/03/08 11:22:59;;;;;;;5.57;1.70;;;-1.10;64.90;;;;;;5051070;28;20033;-77
2021/03/08 11:25:46;;;;;;;18.15;2.15;;;-1.10;65.00;;;;;;5051482;28;20017;-80
2021/03/08 11:28:16;;;;;;;8.43;2.10;;;-1.10;64.60;;;;;;5051121;28;20040;-76
2021/03/08 11:30:50;;;;;;;14.80;2.08;;;-1.10;65.00;;;;;;5051716;28;20044;-75
2021/03/08 11:33:17;;;;;;;5.85;1.88;;;-1.00;66.50;;;;;;5050649;28;20037;-74
2021/03/08 11:35:50;;;;;;;12.70;2.88;;;-0.90;66.30;;;;;;5047196;28;20029;-73
2021/03/08 11:38:21;;;;;;;6.65;1.30;;;-1.00;66.30;;;;;;5051255;28;20112;-73
2021/03/08 11:40:48;;;;;;;;;;;-1.10;65.40;;;;;;5050559;28;20051;-73
2021/03/08 11:43:18;;;;;;;6.07;1.42;;;-1.10;65.10;;;;;;5050939;28;19950;-73
2021/03/08 11:45:43;;;;;;;8.65;2.13;;;-1.20;65.20;;;;;;5049799;28;20028;-73
2021/03/08 11:48:09;;;;;;;11.80;1.77;;;-1.10;66.80;;;;;;5049267;28;20036;-70
2021/03/08 11:50:36;;;;;;;26.55;3.05;;;-1.10;66.50;;;;;;5049916;28;20451;-69
2021/03/08 11:53:03;;;;;;;6.68;1.50;;;-1.00;65.80;;;;;;5050381;28;20048;-69
2021/03/08 11:55:29;;;;;;;15.13;1.70;;;-1.00;65.20;;;;;;5051067;28;20361;-70
2021/03/08 11:57:55;;;;;;;16.88;2.25;;;-0.90;65.40;;;;;;5051352;28;20032;-73
2021/03/08 12:00:23;;;;;;;13.88;1.77;;;-0.90;64.90;;;;;;5051181;28;20383;-73
2021/03/08 12:02:50;;;;;;;37.05;2.95;;;-0.90;64.70;;;;;;5053055;28;20056;-73
2021/03/08 12:05:16;;;;;;;10.30;1.55;;;-0.90;64.60;;;;;;5055342;28;20433;-73
2021/03/08 12:07:42;;;;;;;7.93;1.88;;;-0.90;64.40;;;;;;5054592;28;20063;-73
2021/03/08 12:10:10;;;;;;;11.15;1.70;;;-0.90;64.00;;;;;;5055064;28;20052;-73
2021/03/08 12:12:36;;;;;;;3.67;1.75;;;-0.90;64.10;;;;;;5054462;28;20052;-74
2021/03/08 12:15:04;;;;;;;18.65;2.28;;;-0.90;64.20;;;;;;5053393;28;20021;-73
2021/03/08 12:17:29;;;;;;;43.67;2.67;;;-0.90;64.50;;;;;;5053147;28;20500;-72
2021/03/08 12:19:55;;;;;;;5.07;1.50;;;-1.00;64.70;;;;;;5053764;28;20033;-74
2021/03/08 12:22:21;;;;;;;10.75;1.67;;;-0.90;65.40;;;;;;5053745;28;20097;-71
2021/03/08 12:24:46;;;;;;;14.30;2.13;;;-0.90;64.90;;;;;;5054415;28;20122;-74
2021/03/08 12:27:12;;;;;;;9.45;1.80;;;-1.00;65.10;;;;;;5055877;28;20096;-74
2021/03/08 12:29:38;;;;;;;12.23;1.70;;;-1.00;65.40;;;;;;5054011;28;20025;-74
2021/03/08 12:32:08;;;;;;;8.20;2.22;;;-1.10;65.30;;;;;;5053816;28;20393;-74
2021/03/08 12:34:34;;;;;;;24.50;1.77;;;-1.20;66.20;;;;;;5054346;28;20145;-74
2021/03/08 12:37:00;;;;;;;18.27;2.63;;;-1.20;66.60;;;;;;5053802;28;20025;-71
2021/03/08 12:39:26;;;;;;;16.45;1.95;;;-1.20;66.60;;;;;;5054247;28;20031;-72
2021/03/08 12:41:52;;;;;;;32.45;2.55;;;-0.90;74.00;;;;;;5054245;28;20431;-71
2021/03/08 12:44:18;;;;;;;14.55;1.55;;;-0.50;67.30;;;;;;5054545;28;20108;-72
2021/03/08 12:46:44;;;;;;;4.30;1.63;;;-0.70;64.90;;;;;;5053481;28;20364;-71
2021/03/08 12:49:10;;;;;;;13.00;2.03;;;-0.80;64.80;;;;;;5051108;28;20025;-72
2021/03/08 12:51:36;;;;;;;11.57;1.58;;;-0.90;65.80;;;;;;5054057;28;20479;-72
2021/03/08 12:54:03;;;;;;;7.13;1.80;;;-1.00;66.40;;;;;;5053221;28;20033;-72
2021/03/08 12:56:29;;;;;;;6.97;1.73;;;-1.00;66.30;;;;;;5052447;28;20024;-71
2021/03/08 12:58:55;;;;;;;23.17;2.90;;;-1.00;67.10;;;;;;5054204;28;20029;-72
2021/03/08 13:01:20;;;;;;;12.05;1.50;;;-1.10;66.70;;;;;;5054311;28;20020;-71
2021/03/08 13:03:46;;;;;;;12.13;1.67;;;-1.10;66.50;;;;;;5052437;28;20484;-71
2021/03/08 13:06:13;;;;;;;7.32;1.90;;;-1.20;66.70;;;;;;5053993;28;20063;-73
2021/03/08 13:08:38;;;;;;;8.13;1.65;;;-1.20;66.50;;;;;;5053633;28;20127;-72
2021/03/08 13:11:04;;;;;;;12.82;1.80;;;-1.20;67.40;;;;;;5054001;28;20121;-71
2021/03/08 13:13:30;;;;;;;14.25;1.77;;;-1.10;67.00;;;;;;5053405;28;20119;-67
2021/03/08 13:15:55;;;;;;;14.80;2.40;;;-0.90;72.80;;;;;;5053495;28;20032;-68
2021/03/08 13:18:21;;;;;;;8.27;1.95;;;-0.90;68.10;;;;;;5051045;28;20078;-67
2021/03/08 13:20:48;;;;;;;15.50;2.22;;;-1.00;67.90;;;;;;5053469;28;20147;-67
2021/03/08 13:23:14;;;;;;;10.82;1.55;;;-1.00;68.30;;;;;;5052629;28;20037;-67
2021/03/08 13:25:40;;;;;;;18.25;2.17;;;-1.10;67.90;;;;;;5053034;28;20028;-68
2021/03/08 13:28:06;;;;;;;6.88;1.58;;;-1.10;68.20;;;;;;5052689;28;20484;-68
2021/03/08 13:30:33;;;;;;;4.20;2.08;;;-1.20;68.20;;;;;;5052793;28;20032;-68
2021/03/08 13:32:59;;;;;;;10.50;1.60;;;-1.20;67.60;;;;;;5052931;28;20033;-68
2021/03/08 13:35:26;;;;;;;10.15;2.08;;;-1.20;67.80;;;;;;5052725;28;20431;-68
2021/03/08 13:37:53;;;;;;;8.48;1.52;;;-1.30;68.00;;;;;;5052768;28;20036;-68
2021/03/08 13:40:19;;;;;;;15.90;1.77;;;-1.30;68.40;;;;;;5051565;28;20021;-68
2021/03/08 13:42:45;;;;;;;7.30;1.85;;;-1.30;68.60;;;;;;5052768;28;20033;-68
2021/03/08 13:45:12;;;;;;;46.58;3.28;;;-1.30;69.00;;;;;;5053259;28;20029;-68
2021/03/08 13:47:38;;;;;;;13.35;2.45;;;-1.30;69.00;;;;;;5052794;28;20025;-68
2021/03/08 13:50:07;;;;;;;13.23;2.15;;;-1.40;69.20;;;;;;5052824;28;20468;-68
2021/03/08 13:52:36;;;;;;;13.57;1.95;;;-1.40;69.60;;;;;;5051308;28;20052;-67
2021/03/08 13:55:03;;;;;;;7.40;1.40;;;-1.40;69.80;;;;;;5052751;28;20420;-68
2021/03/08 13:57:29;;;;;;;9.02;2.22;;;-1.50;69.70;;;;;;5052081;28;20025;-68
2021/03/08 13:59:55;;;;;;;21.02;3.13;;;-1.50;70.60;;;;;;5051628;28;20095;-68
2021/03/08 14:02:21;;;;;;;21.23;2.50;;;-1.40;71.00;;;;;;5052242;28;20024;-67
2021/03/08 14:04:47;;;;;;;8.80;1.85;;;-1.40;71.70;;;;;;5051881;28;20055;-68
2021/03/08 14:07:13;;;;;;;20.98;2.83;;;-1.40;71.20;;;;;;5052599;28;20013;-68
2021/03/08 14:09:38;;;;;;;13.57;1.65;;;-1.50;70.70;;;;;;5052347;28;20029;-68
2021/03/08 14:12:05;;;;;;;9.77;1.77;;;-1.60;71.30;;;;;;5052252;28;20405;-68
2021/03/08 14:14:31;;;;;;;19.10;2.50;;;-1.60;71.40;;;;;;5052051;28;20362;-68
2021/03/08 14:16:58;;;;;;;9.73;1.80;;;-1.60;71.70;;;;;;5052411;28;20029;-68
2021/03/08 14:19:23;;;;;;;19.48;2.38;;;-1.60;71.60;;;;;;5052109;28;20033;-68
2021/03/08 14:21:49;;;;;;;17.85;1.90;;;-1.60;71.90;;;;;;5052103;28;20096;-69
2021/03/08 14:24:15;;;;;;;16.45;2.05;;;-1.60;72.20;;;;;;5051795;28;20078;-69
2021/03/08 14:26:41;;;;;;;29.77;2.55;;;-1.60;71.90;;;;;;5052010;28;20024;-68
2021/03/08 14:29:06;;;;;;;34.22;2.53;;;-1.60;71.70;;;;;;5051890;28;20397;-68
2021/03/08 14:31:32;;;;;;;18.75;3.08;;;-1.60;72.30;;;;;;5051783;28;20017;-68
2021/03/08 14:33:58;;;;;;;8.90;2.20;;;-1.60;72.50;;;;;;5051215;28;20048;-68
2021/03/08 14:36:23;;;;;;;289.30;12.05;;;-1.60;72.90;;;;;;5046220;28;20029;-68
2021/03/08 14:38:49;;;;;;;19.70;2.00;;;-1.60;73.30;;;;;;5050657;28;20407;-69
2021/03/08 14:41:15;;;;;;;12.45;1.88;;;-1.60;73.90;;;;;;5051551;28;20059;-70
2021/03/08 14:43:41;;;;;;;12.85;1.80;;;-1.60;73.60;;;;;;5051346;28;20113;-69
2021/03/08 14:46:06;;;;;;;16.02;1.80;;;-1.70;73.90;;;;;;5050940;28;20052;-70
2021/03/08 14:48:32;;;;;;;18.85;2.05;;;-1.70;74.20;;;;;;5051011;28;20039;-69
2021/03/08 14:50:58;;;;;;;11.43;1.70;;;-1.70;74.80;;;;;;5051120;28;20025;-69
2021/03/08 14:53:24;;;;;;;14.98;2.58;;;-1.70;74.40;;;;;;5051640;28;20090;-69
2021/03/08 14:55:49;;;;;;;11.50;2.00;;;-1.80;74.80;;;;;;5051288;28;20442;-69
2021/03/08 14:58:15;;;;;;;8.60;1.70;;;-1.70;75.00;;;;;;5047748;28;20115;-68
2021/03/08 15:00:41;;;;;;;25.45;2.00;;;-1.80;75.60;;;;;;5050894;28;20028;-68
2021/03/08 15:03:07;;;;;;;48.70;3.15;;;-1.80;76.00;;;;;;5051149;28;20028;-68
2021/03/08 15:05:33;;;;;;;27.23;2.90;;;-1.80;76.70;;;;;;5051234;28;20013;-68
2021/03/08 15:07:59;;;;;;;12.63;2.45;;;-1.80;77.20;;;;;;5051235;28;20089;-68
2021/03/08 15:10:25;;;;;;;12.60;3.00;;;-1.80;77.70;;;;;;5051233;28;20028;-68
2021/03/08 15:12:51;;;;;;;12.52;2.53;;;-1.90;78.10;;;;;;5050907;28;20049;-68
2021/03/08 15:15:17;;;;;;;14.10;3.78;;;-1.90;78.80;;;;;;5051603;28;20025;-68
2021/03/08 15:17:42;;;;;;;8.00;2.83;;;-1.90;79.00;;;;;;5051204;28;20465;-68
2021/03/08 15:20:13;;;;;;;19.20;3.28;;;-2.00;79.10;;;;;;5051530;28;20017;-68
2021/03/08 15:22:42;;;;;;;22.08;2.97;;;-2.00;79.70;;;;;;5051678;28;20021;-67
2021/03/08 15:25:10;;;;;;;11.40;3.05;;;-2.00;79.50;;;;;;5054105;28;20025;-66
2021/03/08 15:27:37;;;;;;;24.58;3.75;;;-2.00;79.50;;;;;;5051632;28;20025;-67
2021/03/08 15:30:05;;;;;;;19.42;4.05;;;-2.10;80.10;;;;;;5051727;28;20055;-67
2021/03/08 15:32:30;;;;;;;18.42;3.15;;;-2.10;80.60;;;;;;5052184;28;20512;-66
2021/03/08 15:34:56;;;;;;;23.13;3.08;;;-2.10;81.60;;;;;;5053538;28;20068;-67
2021/03/08 15:37:22;;;;;;;17.65;2.70;;;-2.10;81.90;;;;;;5054092;28;20246;-66
2021/03/08 15:39:47;;;;;;;12.48;2.35;;;-2.00;81.10;;;;;;5055435;28;20029;-67
2021/03/08 15:42:13;;;;;;;20.95;2.22;;;-2.10;80.50;;;;;;5055727;28;20036;-66
2021/03/08 15:44:39;;;;;;;16.90;2.55;;;-2.10;81.10;;;;;;5055744;28;20017;-67
2021/03/08 15:47:05;;;;;;;13.63;1.90;;;-2.20;81.20;;;;;;5055704;28;20416;-66
2021/03/08 15:49:31;;;;;;;6.88;1.73;;;-2.30;81.60;;;;;;5055426;28;20053;-66
2021/03/08 15:51:57;;;;;;;10.50;1.90;;;-2.30;82.40;;;;;;5055530;28;20060;-66
2021/03/08 15:54:23;;;;;;;11.05;2.53;;;-2.30;83.10;;;;;;5055375;28;20029;-67
2021/03/08 15:56:48;;;;;;;13.43;1.90;;;-2.30;83.40;;;;;;5055277;28;20381;-67
2021/03/08 15:59:14;;;;;;;16.15;2.15;;;-2.20;83.30;;;;;;5055287;28;20104;-67
2021/03/08 16:01:40;;;;;;;16.58;2.33;;;-2.20;84.30;;;;;;5055512;28;20108;-67
2021/03/08 16:04:06;;;;;;;10.75;2.13;;;-2.20;84.00;;;;;;5055131;28;20175;-68
2021/03/08 16:06:31;;;;;;;17.33;2.00;;;-2.20;83.60;;;;;;5055086;28;20029;-67
2021/03/08 16:08:58;;;;;;;7.10;1.90;;;-2.10;83.60;;;;;;5054978;28;20131;-67
2021/03/08 16:11:24;;;;;;;14.82;1.48;;;-2.10;82.90;;;;;;5054564;28;20075;-66
2021/03/08 16:13:50;;;;;;;11.80;1.65;;;-1.70;93.20;;;;;;5054635;28;20037;-67
2021/03/08 16:16:16;;;;;;;8.77;2.42;;;-1.70;84.60;;;;;;5054813;28;20037;-66
2021/03/08 16:18:42;;;;;;;25.45;3.28;;;-1.70;87.70;;;;;;5054228;28;20626;-68
2021/03/08 16:21:08;;;;;;;11.73;2.17;;;-1.40;91.80;;;;;;5055005;28;20377;-68
2021/03/08 16:23:33;;;;;;;18.08;2.83;;;-1.40;84.50;;;;;;5053867;28;20032;-68
2021/03/08 16:25:59;;;;;;;6.47;1.80;;;-1.60;82.80;;;;;;5054873;28;20024;-66
2021/03/08 16:28:25;;;;;;;17.98;2.38;;;-1.70;82.70;;;;;;5054681;28;20095;-68
2021/03/08 16:30:51;;;;;;;19.27;1.80;;;-1.80;82.70;;;;;;5054059;28;20527;-69
2021/03/08 16:33:16;;;;;;;12.45;1.83;;;-1.80;83.30;;;;;;5053888;28;20530;-69
2021/03/08 16:35:42;;;;;;;12.85;2.05;;;-1.80;83.30;;;;;;5054469;28;20096;-69
2021/03/08 16:38:08;;;;;;;2.72;1.40;;;-1.80;83.70;;;;;;5054475;28;20108;-68
2021/03/08 16:40:34;;;;;;;13.45;1.92;;;-1.80;84.00;;;;;;5054435;28;20028;-69
2021/03/08 16:43:00;;;;;;;9.23;1.90;;;-1.90;83.60;;;;;;5054800;28;20033;-69
2021/03/08 16:45:26;;;;;;;6.47;1.75;;;-2.00;82.90;;;;;;5053135;28;20495;-69
2021/03/08 16:47:52;;;;;;;6.03;1.55;;;-2.00;84.00;;;;;;5053853;28;20028;-69
2021/03/08 16:50:18;;;;;;;6.40;1.50;;;-2.10;84.10;;;;;;5054485;28;20028;-69
2021/03/08 16:52:45;;;;;;;10.20;1.70;;;-2.10;84.00;;;;;;5052871;28;20453;-68
2021/03/08 16:55:14;;;;;;;12.70;1.65;;;-2.10;83.90;;;;;;5054375;28;20032;-70
2021/03/08 16:57:40;;;;;;;7.20;1.55;;;-2.10;84.60;;;;;;5054164;28;20040;-69
2021/03/08 17:00:09;;;;;;;11.40;2.35;;;-2.10;84.40;;;;;;5054205;28;20032;-69
2021/03/08 17:02:35;;;;;;;19.05;2.03;;;-2.20;84.50;;;;;;5053956;28;20021;-69
2021/03/08 17:05:01;;;;;;;6.82;1.60;;;-2.20;85.00;;;;;;5054248;28;20056;-68